Time;durP1;ratioP1;P1;durP2;ratioP2;P2;SDS_P1;SDS_P2;PMS_P1;PMS_P2;Temp;Humidity;BMP_temperature;BMP_pressure;BME280_temperature;BME280_humidity;BME280_pressure;Samples;Min_cycle;Max_cycle;Signal;HPM_P1;HPM_P2
2022/05/29 00:02:54;;;;;;;;;;;;;;;14.83;58.07;100406.59;1690261;84;20200;-58
2022/05/29 00:06:00;;;;;;;;;;;;;;;14.80;58.17;100405.63;1691010;84;20572;-56
2022/05/29 00:09:05;;;;;;;;;;;;;;;14.79;58.30;100420.98;1704663;84;20601;-58
2022/05/29 00:12:11;;;;;;;;;;;;;;;14.77;58.38;100414.81;1704818;84;20545;-59
2022/05/29 00:15:16;;;;;;;;;;;;;;;14.77;58.55;100423.08;1705286;82;20185;-57
2022/05/29 00:18:23;;;;;;;;;;;;;;;14.77;58.71;100417.05;1713503;83;20232;-55
2022/05/29 00:21:28;;;;;;;;;;;;;;;14.79;58.85;100420.98;1708604;82;20568;-56
2022/05/29 00:24:33;;;;;;;;;;;;;;;14.79;58.95;100411.34;1704548;84;20276;-55
2022/05/29 00:27:38;;;;;;;;;;;;;;;14.77;58.98;100410.68;1704617;84;20252;-55
2022/05/29 00:30:42;;;;;;;;;;;;;;;14.74;58.98;100409.71;1704835;84;20200;-55
2022/05/29 00:33:47;;;;;;;;;;;;;;;14.68;58.98;100412.73;1704867;84;20537;-57
2022/05/29 00:36:51;;;;;;;;;;;;;;;14.63;59.08;100412.52;1704402;84;20564;-58
2022/05/29 00:39:56;;;;;;;;;;;;;;;14.62;59.21;100420.43;1704302;84;20205;-56
2022/05/29 00:43:02;;;;;;;;;;;;;;;14.57;59.30;100420.72;1703914;84;20217;-57
2022/05/29 00:46:09;;;;;;;;;;;;;;;14.55;59.49;100415.93;1704137;84;20515;-56
2022/05/29 00:49:16;;;;;;;;;;;;;;;14.53;59.65;100424.91;1703653;84;20217;-56
2022/05/29 00:52:27;;;;;;;;;;;;;;;14.50;59.81;100422.56;1704545;84;20216;-57
2022/05/29 00:55:33;;;;;;;;;;;;;;;14.47;59.87;100418.83;1704197;84;20212;-55
2022/05/29 00:58:38;;;;;;;;;;;;;;;14.44;59.95;100426.98;1704749;84;20305;-55
2022/05/29 01:01:47;;;;;;;;;;;;;;;14.42;60.12;100426.84;1707671;84;20525;-56
2022/05/29 01:04:53;;;;;;;;;;;;;;;14.42;60.27;100421.33;1709563;84;20225;-56
2022/05/29 01:08:04;;;;;;;;;;;;;;;14.39;60.31;100428.62;1709583;84;20232;-58
2022/05/29 01:11:12;;;;;;;;;;;;;;;14.37;60.40;100423.83;1709475;84;20537;-57
2022/05/29 01:14:34;;;;;;;;;;;;;;;14.33;60.54;100426.66;1709682;84;20593;-57
2022/05/29 01:18:00;;;;;;;;;;;;;;;14.28;60.62;100433.29;1709635;84;20252;-58
2022/05/29 01:21:27;;;;;;;;;;;;;;;14.22;60.71;100434.05;1709556;84;20565;-57
2022/05/29 01:24:46;;;;;;;;;;;;;;;14.21;60.80;100436.46;1709421;84;20537;-57
2022/05/29 01:28:13;;;;;;;;;;;;;;;14.19;60.82;100446.84;1709653;84;20207;-57
2022/05/29 01:31:28;;;;;;;;;;;;;;;14.15;60.89;100442.77;1709345;84;20241;-59
2022/05/29 01:34:40;;;;;;;;;;;;;;;14.14;60.99;100446.58;1709283;84;20537;-57
2022/05/29 01:37:52;;;;;;;;;;;;;;;14.11;61.09;100444.22;1709579;84;20200;-58
2022/05/29 01:41:04;;;;;;;;;;;;;;;14.09;61.21;100443.05;1709458;84;20193;-57
2022/05/29 01:44:19;;;;;;;;;;;;;;;14.07;61.28;100429.13;1709642;84;20545;-57
2022/05/29 01:47:28;;;;;;;;;;;;;;;14.06;61.37;100423.31;1714038;83;20188;-56
2022/05/29 01:50:37;;;;;;;;;;;;;;;14.03;61.45;100427.33;1709668;84;20224;-57
2022/05/29 01:53:43;;;;;;;;;;;;;;;14.03;61.59;100420.95;1709553;84;20276;-58
2022/05/29 01:57:00;;;;;;;;;;;;;;;14.03;61.70;100420.95;1709165;84;20204;-58
2022/05/29 02:00:08;;;;;;;;;;;;;;;14.03;61.75;100411.32;1709444;84;20228;-57
2022/05/29 02:03:19;;;;;;;;;;;;;;;14.01;61.75;100410.66;1700083;84;20225;-57
2022/05/29 02:07:47;;;;;;;;;;;;;;;14.00;61.84;100395.20;1699884;84;20193;-58
2022/05/29 02:09:42;;;;;;;;;;;;;;;13.98;61.95;100387.14;1700016;84;20202;-58
2022/05/29 02:12:52;;;;;;;;;;;;;;;13.99;62.09;100389.35;1685208;84;20525;-57
2022/05/29 02:16:02;;;;;;;;;;;;;;;14.00;62.18;100386.40;1684857;84;20584;-58
2022/05/29 02:19:16;;;;;;;;;;;;;;;14.03;62.27;100381.91;1699850;84;20276;-59
2022/05/29 02:22:35;;;;;;;;;;;;;;;14.04;62.31;100380.84;1699593;84;20561;-60
2022/05/29 02:25:40;;;;;;;;;;;;;;;14.07;62.35;100384.58;1699871;84;20331;-58
2022/05/29 02:28:47;;;;;;;;;;;;;;;14.10;62.42;100390.19;1699631;84;20268;-58
2022/05/29 02:31:55;;;;;;;;;;;;;;;14.11;62.45;100394.67;1699547;84;20201;-57
2022/05/29 02:35:06;;;;;;;;;;;;;;;14.10;62.56;100402.58;1699300;84;20229;-56
2022/05/29 02:38:22;;;;;;;;;;;;;;;14.12;62.57;100412.88;1699661;84;20259;-57
2022/05/29 02:41:30;;;;;;;;;;;;;;;14.11;62.61;100423.58;1699517;84;20587;-58
2022/05/29 02:44:50;;;;;;;;;;;;;;;14.11;62.71;100420.28;1703743;84;20212;-57
2022/05/29 02:48:03;;;;;;;;;;;;;;;14.11;62.75;100421.66;1699979;84;20197;-58
2022/05/29 02:51:33;;;;;;;;;;;;;;;14.11;62.68;100416.15;1700067;84;20584;-57
2022/05/29 02:54:40;;;;;;;;;;;;;;;14.09;62.65;100407.77;1700084;84;20308;-58
2022/05/29 02:57:47;;;;;;;;;;;;;;;14.05;62.76;100424.38;1700124;84;20213;-55
2022/05/29 03:01:02;;;;;;;;;;;;;;;14.04;62.87;100452.41;1699982;84;20526;-57
2022/05/29 03:04:40;;;;;;;;;;;;;;;14.03;62.94;100462.25;1703157;84;20233;-57
2022/05/29 03:08:15;;;;;;;;;;;;;;;13.97;63.07;100469.91;1704579;84;20556;-57
2022/05/29 03:11:44;;;;;;;;;;;;;;;13.98;63.19;100489.50;1704692;84;20264;-56
2022/05/29 03:14:56;;;;;;;;;;;;;;;14.04;63.33;100501.96;1704651;84;20214;-57
2022/05/29 03:18:14;;;;;;;;;;;;;;;14.04;63.42;100499.21;1704484;84;20525;-57
2022/05/29 03:21:21;;;;;;;;;;;;;;;14.04;63.45;100499.72;1704634;84;20529;-56
2022/05/29 03:24:38;;;;;;;;;;;;;;;14.04;63.49;100511.59;1704554;84;20224;-56
2022/05/29 03:27:49;;;;;;;;;;;;;;;14.06;63.53;100512.78;1704717;84;20268;-56
2022/05/29 03:30:54;;;;;;;;;;;;;;;14.07;63.56;100524.11;1704558;84;20189;-56
2022/05/29 03:33:59;;;;;;;;;;;;;;;14.08;63.63;100528.03;1704671;84;20510;-56
2022/05/29 03:37:03;;;;;;;;;;;;;;;14.10;63.67;100532.83;1704612;84;20584;-56
2022/05/29 03:40:07;;;;;;;;;;;;;;;14.14;63.67;100532.79;1704576;84;20196;-55
2022/05/29 03:43:12;;;;;;;;;;;;;;;14.18;63.67;100532.71;1704569;84;20565;-57
2022/05/29 03:46:17;;;;;;;;;;;;;;;14.20;63.65;100539.40;1704607;84;20524;-58
2022/05/29 03:49:23;;;;;;;;;;;;;;;14.22;63.69;100534.02;1704585;84;20272;-58
2022/05/29 03:52:27;;;;;;;;;;;;;;;14.24;63.67;100531.95;1704547;84;20525;-57
2022/05/29 03:55:34;;;;;;;;;;;;;;;14.23;63.62;100527.48;1704572;84;20240;-58
2022/05/29 03:58:39;;;;;;;;;;;;;;;14.22;63.64;100526.30;1704473;84;20558;-56
2022/05/29 04:01:44;;;;;;;;;;;;;;;14.21;63.65;100525.95;1704531;84;20240;-57
2022/05/29 04:04:48;;;;;;;;;;;;;;;14.22;63.71;100531.80;1689043;82;20218;-57
2022/05/29 04:14:45;;;;;;;;;;;;;;;14.23;63.89;100545.37;1645981;87;20267;-58
2022/05/29 04:17:49;;;;;;;;;;;;;;;14.26;63.95;100544.16;1647018;87;20201;-57
2022/05/29 04:20:57;;;;;;;;;;;;;;;14.28;64.01;100554.45;1646525;87;20587;-56
2022/05/29 04:24:01;;;;;;;;;;;;;;;14.29;64.09;100561.14;1646924;87;20219;-58
2022/05/29 04:27:06;;;;;;;;;;;;;;;14.31;64.04;100562.33;1641906;87;20226;-58
2022/05/29 04:30:12;;;;;;;;;;;;;;;14.29;63.98;100567.16;1649004;87;20572;-57
2022/05/29 04:33:16;;;;;;;;;;;;;;;14.30;64.00;100570.27;1622638;88;20271;-58
2022/05/29 04:36:20;;;;;;;;;;;;;;;14.30;64.05;100570.27;1649286;87;20221;-58
2022/05/29 04:39:25;;;;;;;;;;;;;;;14.32;64.18;100574.52;1648916;87;20218;-56
2022/05/29 04:42:28;;;;;;;;;;;;;;;14.35;64.26;100584.31;1596449;90;20553;-57
2022/05/29 04:45:32;;;;;;;;;;;;;;;14.36;64.26;100584.62;1601690;89;20221;-57
2022/05/29 04:48:38;;;;;;;;;;;;;;;14.36;64.24;100588.77;1610509;88;20239;-56
2022/05/29 04:51:41;;;;;;;;;;;;;;;14.36;64.33;100580.50;1601146;89;20226;-57
2022/05/29 04:54:47;;;;;;;;;;;;;;;14.38;64.41;100582.54;1627175;88;20227;-57
2022/05/29 04:57:53;;;;;;;;;;;;;;;14.38;64.51;100577.86;1628552;88;20255;-55
2022/05/29 05:01:05;;;;;;;;;;;;;;;14.40;64.58;100585.41;1625662;88;20245;-57
2022/05/29 05:04:12;;;;;;;;;;;;;;;14.40;64.61;100581.80;1603461;85;20292;-55
2022/05/29 05:07:18;;;;;;;;;;;;;;;14.42;64.64;100583.84;1615147;89;20525;-58
2022/05/29 05:10:23;;;;;;;;;;;;;;;14.43;64.60;100584.19;1618341;87;20223;-58
2022/05/29 05:13:28;;;;;;;;;;;;;;;14.43;64.64;100585.02;1636396;87;20217;-56
2022/05/29 05:16:33;;;;;;;;;;;;;;;14.45;64.72;100581.55;1640783;87;20229;-56
2022/05/29 05:19:37;;;;;;;;;;;;;;;14.48;64.75;100581.67;1640998;87;20562;-57
2022/05/29 05:22:44;;;;;;;;;;;;;;;14.51;64.79;100581.28;1640668;87;20225;-56
2022/05/29 05:25:49;;;;;;;;;;;;;;;14.54;64.75;100580.91;1633397;87;20222;-56
2022/05/29 05:28:54;;;;;;;;;;;;;;;14.54;64.68;100584.50;1639442;87;20218;-56
2022/05/29 05:32:01;;;;;;;;;;;;;;;14.53;64.67;100582.81;1617870;87;20218;-56
2022/05/29 05:35:07;;;;;;;;;;;;;;;14.55;64.70;100588.12;1640199;87;20214;-56
2022/05/29 05:38:13;;;;;;;;;;;;;;;14.56;64.72;100587.92;1612848;87;20807;-56
2022/05/29 05:41:19;;;;;;;;;;;;;;;14.59;64.85;100591.66;1620571;88;20583;-57
2022/05/29 05:44:25;;;;;;;;;;;;;;;14.64;64.95;100588.30;1620514;88;20208;-55
2022/05/29 05:47:31;;;;;;;;;;;;;;;14.68;65.00;100586.33;1620569;88;20204;-56
2022/05/29 05:50:36;;;;;;;;;;;;;;;14.72;64.91;100578.53;1620270;88;20569;-56
2022/05/29 05:53:45;;;;;;;;;;;;;;;14.77;64.78;100585.69;1636151;87;20213;-55
2022/05/29 05:56:53;;;;;;;;;;;;;;;14.81;64.79;100590.59;1637541;88;20614;-56
2022/05/29 05:59:59;;;;;;;;;;;;;;;14.86;64.87;100580.35;1653973;87;20227;-56
2022/05/29 06:03:04;;;;;;;;;;;;;;;14.95;64.94;100583.31;1653241;87;20554;-56
2022/05/29 06:06:13;;;;;;;;;;;;;;;15.00;64.94;100580.78;1644812;82;20262;-54
2022/05/29 06:09:20;;;;;;;;;;;;;;;15.07;64.92;100583.60;1705071;84;20212;-57
2022/05/29 06:12:27;;;;;;;;;;;;;;;15.13;64.95;100582.28;1704181;84;20585;-56
2022/05/29 06:15:33;;;;;;;;;;;;;;;15.17;64.97;100591.88;1704277;84;20193;-56
2022/05/29 06:18:40;;;;;;;;;;;;;;;15.24;65.02;100602.41;1705255;84;20221;-56
2022/05/29 06:21:46;;;;;;;;;;;;;;;15.33;65.05;100598.47;1704849;84;20590;-57
2022/05/29 06:24:53;;;;;;;;;;;;;;;15.39;65.04;100603.73;1721202;83;20215;-57
2022/05/29 06:28:01;;;;;;;;;;;;;;;15.46;65.07;100606.02;1727069;82;20254;-55
2022/05/29 06:31:07;;;;;;;;;;;;;;;15.52;65.14;100601.92;1735032;82;20558;-55
2022/05/29 06:34:13;;;;;;;;;;;;;;;15.59;65.19;100593.14;1735354;82;20222;-55
2022/05/29 06:37:20;;;;;;;;;;;;;;;15.65;65.19;100593.70;1735989;83;20278;-58
2022/05/29 06:40:28;;;;;;;;;;;;;;;15.70;65.21;100593.95;1735935;83;20554;-52
2022/05/29 06:43:33;;;;;;;;;;;;;;;15.77;65.25;100581.57;1736393;83;20215;-56
2022/05/29 06:46:40;;;;;;;;;;;;;;;15.86;65.33;100576.19;1735408;83;20547;-56
2022/05/29 06:49:50;;;;;;;;;;;;;;;15.99;65.41;100585.41;1735008;82;20202;-57
2022/05/29 06:52:55;;;;;;;;;;;;;;;16.12;65.41;100577.18;1734938;83;20598;-57
2022/05/29 06:56:01;;;;;;;;;;;;;;;16.25;65.35;100585.48;1735558;83;20222;-56
2022/05/29 06:59:09;;;;;;;;;;;;;;;16.36;65.26;100589.03;1721048;83;20584;-56
2022/05/29 07:08:43;;;;;;;;;;;;;;;16.70;65.21;100588.63;1706545;84;20197;-59
2022/05/29 07:11:54;;;;;;;;;;;;;;;16.85;65.26;100590.14;1707154;84;20220;-56
2022/05/29 07:15:18;;;;;;;;;;;;;;;17.00;65.11;100594.09;1707140;84;20201;-58
2022/05/29 07:18:29;;;;;;;;;;;;;;;17.12;65.05;100601.53;1670862;84;20250;-57
2022/05/29 07:21:34;;;;;;;;;;;;;;;17.24;64.91;100605.88;1677651;85;20634;-57
2022/05/29 07:24:41;;;;;;;;;;;;;;;17.33;64.89;100615.69;1677609;85;20325;-56
2022/05/29 07:27:49;;;;;;;;;;;;;;;17.42;64.74;100616.63;1678274;85;20215;-56
2022/05/29 07:30:59;;;;;;;;;;;;;;;17.51;64.54;100626.97;1678074;85;20246;-57
2022/05/29 07:34:03;;;;;;;;;;;;;;;17.58;64.34;100630.03;1676092;84;20532;-56
2022/05/29 07:37:12;;;;;;;;;;;;;;;17.62;64.27;100624.92;1659656;84;20233;-58
2022/05/29 07:40:17;;;;;;;;;;;;;;;17.64;64.19;100628.34;1670117;84;20209;-57
2022/05/29 07:43:23;;;;;;;;;;;;;;;17.63;64.16;100626.65;1684553;84;20232;-58
2022/05/29 07:46:29;;;;;;;;;;;;;;;17.66;64.18;100620.67;1676349;84;20222;-58
2022/05/29 07:49:34;;;;;;;;;;;;;;;17.71;64.17;100627.80;1678387;84;20211;-58
2022/05/29 07:52:40;;;;;;;;;;;;;;;17.73;64.10;100631.19;1680776;84;20701;-61
2022/05/29 07:55:48;;;;;;;;;;;;;;;17.77;64.08;100632.47;1683802;84;20260;-60
2022/05/29 07:58:53;;;;;;;;;;;;;;;17.82;64.02;100636.84;1679364;84;20284;-61
2022/05/29 08:01:58;;;;;;;;;;;;;;;17.85;64.02;100641.94;1706605;84;20561;-59
2022/05/29 08:05:07;;;;;;;;;;;;;;;17.89;64.06;100639.03;1706136;84;20220;-59
2022/05/29 08:08:16;;;;;;;;;;;;;;;17.87;63.95;100646.18;1696522;84;20531;-60
2022/05/29 08:11:22;;;;;;;;;;;;;;;17.82;63.91;100643.20;1646259;87;20223;-61
2022/05/29 08:14:29;;;;;;;;;;;;;;;17.81;63.91;100651.20;1645906;87;20247;-60
2022/05/29 08:17:35;;;;;;;;;;;;;;;17.77;63.92;100647.15;1646664;86;20537;-59
2022/05/29 08:20:42;;;;;;;;;;;;;;;17.69;63.80;100650.17;1646414;86;20200;-61
2022/05/29 08:30:43;;;;;;;;;;;;;;;17.48;63.87;100657.84;1648482;87;20211;-59
2022/05/29 08:33:51;;;;;;;;;;;;;;;17.45;63.90;100666.58;1649254;87;20529;-59
2022/05/29 08:36:58;;;;;;;;;;;;;;;17.46;64.03;100669.66;1626887;87;20223;-58
2022/05/29 08:40:03;;;;;;;;;;;;;;;17.45;64.03;100658.27;1647958;87;20531;-58
2022/05/29 08:43:09;;;;;;;;;;;;;;;17.47;64.04;100653.39;1648334;87;20588;-58
2022/05/29 08:46:32;;;;;;;;;;;;;;;17.48;64.03;100657.84;1614019;87;20230;-59
2022/05/29 08:49:43;;;;;;;;;;;;;;;17.49;64.04;100657.63;1623887;88;20247;-58
2022/05/29 08:53:11;;;;;;;;;;;;;;;17.53;64.08;100653.91;1623303;88;20226;-59
2022/05/29 08:56:21;;;;;;;;;;;;;;;17.52;64.21;100646.13;1623038;88;20228;-58
2022/05/29 08:59:41;;;;;;;;;;;;;;;17.59;64.38;100650.28;1628059;88;20295;-59
2022/05/29 09:03:16;;;;;;;;;;;;;;;17.64;64.33;100656.89;1628901;88;20603;-59
2022/05/29 09:06:35;;;;;;;;;;;;;;;17.65;64.15;100652.18;1628670;88;20283;-58
2022/05/29 09:09:56;;;;;;;;;;;;;;;17.64;64.11;100651.88;1625242;84;20227;-59
2022/05/29 09:13:04;;;;;;;;;;;;;;;17.62;64.08;100654.00;1620114;88;20223;-57
2022/05/29 09:16:11;;;;;;;;;;;;;;;17.67;64.21;100658.36;1620310;88;20583;-56
2022/05/29 09:19:33;;;;;;;;;;;;;;;17.70;64.18;100663.47;1620162;88;20548;-58
2022/05/29 09:22:44;;;;;;;;;;;;;;;17.71;64.18;100665.19;1617377;89;20587;-58
2022/05/29 09:25:52;;;;;;;;;;;;;;;17.68;64.18;100666.98;1620381;88;20564;-60
2022/05/29 09:28:56;;;;;;;;;;;;;;;17.65;64.17;100668.27;1605643;89;20263;-59
2022/05/29 09:32:01;;;;;;;;;;;;;;;17.63;64.18;100666.23;1609773;88;20227;-59
2022/05/29 09:35:20;;;;;;;;;;;;;;;17.61;64.21;100655.08;1619209;88;20235;-59
2022/05/29 09:38:43;;;;;;;;;;;;;;;17.59;64.28;100655.30;1613342;88;20537;-60
2022/05/29 09:41:55;;;;;;;;;;;;;;;17.56;64.33;100657.11;1581011;89;20663;-60
2022/05/29 09:45:22;;;;;;;;;;;;;;;17.60;64.49;100648.67;1604795;88;20201;-60
2022/05/29 09:52:08;;;;;;;;;;;;;;;17.80;64.65;100666.66;1605383;89;20250;-60
2022/05/29 09:55:36;;;;;;;;;;;;;;;17.85;64.51;100665.48;1607038;88;20287;-61
2022/05/29 09:58:52;;;;;;;;;;;;;;;17.84;64.50;100665.14;1608828;88;20258;-61
2022/05/29 10:01:58;;;;;;;;;;;;;;;17.82;64.46;100667.30;1609046;89;20276;-60
2022/05/29 10:05:04;;;;;;;;;;;;;;;17.81;64.61;100665.58;1606965;88;20226;-61
2022/05/29 10:08:31;;;;;;;;;;;;;;;17.78;64.62;100664.63;1607779;89;20224;-61
2022/05/29 10:11:45;;;;;;;;;;;;;;;17.84;64.59;100663.23;1614343;87;20239;-60
2022/05/29 10:14:50;;;;;;;;;;;;;;;17.95;64.62;100660.87;1617178;87;20535;-61
2022/05/29 10:17:56;;;;;;;;;;;;;;;17.98;64.55;100666.84;1628253;88;20593;-61
2022/05/29 10:21:00;;;;;;;;;;;;;;;18.01;64.43;100673.34;1639417;86;20221;-59
2022/05/29 10:24:20;;;;;;;;;;;;;;;18.06;64.37;100674.89;1594867;89;20691;-60
2022/05/29 10:27:39;;;;;;;;;;;;;;;18.19;64.44;100665.72;1619745;89;20295;-59
2022/05/29 10:31:04;;;;;;;;;;;;;;;18.35;64.44;100667.45;1616396;89;20208;-61
2022/05/29 10:34:18;;;;;;;;;;;;;;;18.50;64.32;100660.28;1625389;87;20205;-59
2022/05/29 10:37:47;;;;;;;;;;;;;;;18.68;64.35;100667.36;1624047;88;20586;-59
2022/05/29 10:40:54;;;;;;;;;;;;;;;18.81;64.26;100677.83;1642968;87;20190;-60
2022/05/29 10:44:01;;;;;;;;;;;;;;;18.96;64.15;100668.65;1627407;88;20597;-60
2022/05/29 10:47:25;;;;;;;;;;;;;;;19.04;64.04;100677.27;1637532;86;20727;-60
2022/05/29 10:50:33;;;;;;;;;;;;;;;19.13;63.82;100661.52;1596607;88;20282;-60
2022/05/29 10:54:09;;;;;;;;;;;;;;;19.27;63.73;100673.35;1630319;87;20713;-62
2022/05/29 10:57:19;;;;;;;;;;;;;;;19.40;63.55;100676.06;1624713;88;20217;-59
2022/05/29 11:00:48;;;;;;;;;;;;;;;19.55;63.50;100672.95;1622936;87;20683;-57
2022/05/29 11:04:16;;;;;;;;;;;;;;;19.67;63.33;100669.20;1621376;88;20209;-57
2022/05/29 11:07:46;;;;;;;;;;;;;;;19.83;63.26;100663.08;1622201;88;20231;-57
2022/05/29 11:11:15;;;;;;;;;;;;;;;20.03;63.32;100660.06;1629655;85;20239;-57
2022/05/29 11:14:33;;;;;;;;;;;;;;;20.20;63.24;100672.33;1656859;86;20239;-55
2022/05/29 11:18:02;;;;;;;;;;;;;;;20.38;63.25;100663.97;1658016;85;20239;-56
2022/05/29 11:21:13;;;;;;;;;;;;;;;20.59;63.22;100667.14;1658625;85;20514;-58
2022/05/29 11:24:29;;;;;;;;;;;;;;;20.72;62.92;100653.02;1645396;87;20270;-57
2022/05/29 11:27:48;;;;;;;;;;;;;;;20.71;62.56;100663.86;1610835;89;20292;-57
2022/05/29 11:31:19;;;;;;;;;;;;;;;20.72;62.60;100663.33;1625164;86;20536;-56
2022/05/29 11:34:33;;;;;;;;;;;;;;;20.67;62.49;100671.52;1640934;87;20193;-57
2022/05/29 11:38:02;;;;;;;;;;;;;;;20.58;62.25;100656.24;1641514;87;20260;-57
2022/05/29 11:41:11;;;;;;;;;;;;;;;20.58;62.27;100657.07;1641266;87;20225;-56
2022/05/29 11:44:25;;;;;;;;;;;;;;;20.69;62.41;100661.02;1638588;87;20225;-57
2022/05/29 11:51:08;;;;;;;;;;;;;;;21.20;62.40;100652.16;1660571;84;20243;-57
2022/05/29 11:54:22;;;;;;;;;;;;;;;21.55;62.50;100662.83;1624057;86;20198;-57
2022/05/29 11:57:31;;;;;;;;;;;;;;;21.76;62.53;100660.86;1656146;86;20567;-58
2022/05/29 12:01:06;;;;;;;;;;;;;;;21.87;62.32;100664.19;1640397;87;20249;-57
2022/05/29 12:04:26;;;;;;;;;;;;;;;21.95;62.22;100670.27;1577467;89;20253;-57
2022/05/29 12:07:41;;;;;;;;;;;;;;;22.12;61.97;100672.61;1690927;84;20272;-57
2022/05/29 12:11:01;;;;;;;;;;;;;;;22.32;62.06;100667.19;1694772;84;20224;-57
2022/05/29 12:14:21;;;;;;;;;;;;;;;22.47;61.96;100659.98;1677525;85;20288;-58
2022/05/29 12:17:30;;;;;;;;;;;;;;;22.58;61.63;100673.09;1642303;87;20582;-58
2022/05/29 12:20:50;;;;;;;;;;;;;;;22.53;61.21;100666.04;1630563;87;20299;-57
2022/05/29 12:24:00;;;;;;;;;;;;;;;22.42;60.96;100666.02;1646404;85;20265;-57
2022/05/29 12:27:23;;;;;;;;;;;;;;;22.36;61.00;100667.02;1620838;88;20222;-56
2022/05/29 12:30:47;;;;;;;;;;;;;;;22.33;60.75;100668.88;1618711;88;20193;-57
2022/05/29 12:33:52;;;;;;;;;;;;;;;22.31;60.61;100665.50;1628390;87;20224;-57
2022/05/29 12:37:10;;;;;;;;;;;;;;;22.33;60.58;100663.29;1626802;87;20299;-57
2022/05/29 12:40:35;;;;;;;;;;;;;;;22.38;60.54;100671.78;1626274;88;20241;-57
2022/05/29 12:44:06;;;;;;;;;;;;;;;22.42;60.43;100678.58;1626115;88;20221;-57
2022/05/29 12:47:36;;;;;;;;;;;;;;;22.45;60.30;100672.51;1626633;88;20481;-56
2022/05/29 12:51:07;;;;;;;;;;;;;;;22.46;60.15;100676.44;1623483;87;20220;-56
2022/05/29 12:54:18;;;;;;;;;;;;;;;22.39;59.94;100673.49;1602173;89;20592;-58
2022/05/29 12:57:31;;;;;;;;;;;;;;;22.08;59.57;100679.78;1622273;88;20235;-58
2022/05/29 13:01:08;;;;;;;;;;;;;;;21.82;59.52;100673.82;1594125;89;20227;-58
2022/05/29 13:04:30;;;;;;;;;;;;;;;21.69;59.75;100674.87;1627900;85;20215;-56
2022/05/29 13:08:06;;;;;;;;;;;;;;;21.63;59.89;100673.59;1646078;87;20205;-56
2022/05/29 13:11:18;;;;;;;;;;;;;;;21.53;60.07;100680.33;1654925;86;20197;-56
2022/05/29 13:14:25;;;;;;;;;;;;;;;21.56;60.08;100677.91;1643395;86;20585;-56
2022/05/29 13:17:38;;;;;;;;;;;;;;;21.63;60.08;100682.81;1643588;87;20229;-56
2022/05/29 13:21:19;;;;;;;;;;;;;;;21.75;60.21;100690.69;1662937;86;20247;-55
2022/05/29 13:24:32;;;;;;;;;;;;;;;21.81;60.14;100691.65;1671950;85;20494;-53
2022/05/29 13:27:39;;;;;;;;;;;;;;;21.88;60.06;100679.84;1662649;86;20559;-53
2022/05/29 13:31:12;;;;;;;;;;;;;;;21.95;60.03;100683.34;1634738;87;20273;-54
2022/05/29 13:34:37;;;;;;;;;;;;;;;22.04;59.92;100682.73;1637166;87;20571;-53
2022/05/29 13:37:50;;;;;;;;;;;;;;;22.17;59.96;100682.49;1657833;86;20587;-54
2022/05/29 13:41:00;;;;;;;;;;;;;;;22.26;59.84;100684.37;1624515;87;20589;-54
2022/05/29 13:44:25;;;;;;;;;;;;;;;22.36;59.78;100690.73;1626466;86;20226;-54
2022/05/29 13:47:42;;;;;;;;;;;;;;;22.45;59.53;100689.25;1622103;86;20213;-58
2022/05/29 13:51:12;;;;;;;;;;;;;;;22.54;59.28;100691.98;1656313;84;20209;-58
2022/05/29 13:54:33;;;;;;;;;;;;;;;22.57;59.10;100683.11;1624637;88;20219;-58
2022/05/29 14:05:08;;;;;;;;;;;;;;;22.40;58.76;100677.97;1639377;87;20225;-58
2022/05/29 14:08:31;;;;;;;;;;;;;;;22.29;58.76;100665.75;1651440;87;20221;-60
2022/05/29 14:11:55;;;;;;;;;;;;;;;22.15;58.68;100669.90;1650671;87;20233;-57
2022/05/29 14:15:01;;;;;;;;;;;;;;;22.01;58.55;100671.21;1662067;84;20248;-57
2022/05/29 14:18:17;;;;;;;;;;;;;;;21.88;58.61;100668.13;1664328;86;20255;-58
2022/05/29 14:21:49;;;;;;;;;;;;;;;21.81;58.76;100661.84;1651718;86;20239;-58
2022/05/29 14:25:30;;;;;;;;;;;;;;;21.79;58.80;100661.77;1636382;87;20221;-58
2022/05/29 14:28:59;;;;;;;;;;;;;;;21.69;58.73;100659.55;1648033;86;20565;-58
2022/05/29 14:32:20;;;;;;;;;;;;;;;21.63;58.70;100665.23;1647789;87;20561;-57
2022/05/29 14:36:02;;;;;;;;;;;;;;;21.63;58.66;100665.23;1645729;87;20233;-58
2022/05/29 14:39:38;;;;;;;;;;;;;;;21.61;58.60;100659.90;1617974;88;20580;-57
2022/05/29 14:42:50;;;;;;;;;;;;;;;21.58;58.58;100660.95;1635500;88;20281;-57
2022/05/29 14:46:23;;;;;;;;;;;;;;;21.53;58.59;100661.64;1634530;88;20537;-57
2022/05/29 14:49:31;;;;;;;;;;;;;;;21.56;58.60;100666.77;1628015;87;20266;-57
2022/05/29 14:52:41;;;;;;;;;;;;;;;21.71;58.55;100669.91;1649224;87;20547;-57
2022/05/29 14:56:06;;;;;;;;;;;;;;;21.81;58.45;100662.38;1665970;84;20243;-56
2022/05/29 14:59:28;;;;;;;;;;;;;;;21.90;58.25;100667.88;1658310;86;20262;-58
2022/05/29 15:02:36;;;;;;;;;;;;;;;22.17;57.88;100664.90;1659864;85;20597;-56
2022/05/29 15:05:45;;;;;;;;;;;;;;;22.32;57.35;100667.19;1662830;86;20223;-56
2022/05/29 15:12:27;;;;;;;;;;;;;;;22.43;57.27;100674.69;1624933;88;20262;-57
2022/05/29 15:15:39;;;;;;;;;;;;;;;22.39;57.23;100683.26;1635340;87;20521;-59
2022/05/29 15:18:48;;;;;;;;;;;;;;;22.34;57.23;100678.95;1633271;87;20648;-57
2022/05/29 15:25:25;;;;;;;;;;;;;;;22.27;57.36;100683.27;1634325;87;20613;-57
2022/05/29 15:28:41;;;;;;;;;;;;;;;22.18;57.46;100679.99;1647407;86;20241;-52
2022/05/29 15:31:50;;;;;;;;;;;;;;;22.22;57.75;100685.94;1649893;86;20209;-54
2022/05/29 15:35:11;;;;;;;;;;;;;;;22.51;57.95;100692.44;1651865;86;20561;-51
2022/05/29 15:38:24;;;;;;;;;;;;;;;22.77;57.33;100690.54;1657574;86;20268;-54
2022/05/29 15:41:59;;;;;;;;;;;;;;;22.68;57.22;100697.58;1658253;86;20249;-59
2022/05/29 15:45:42;;;;;;;;;;;;;;;22.54;57.19;100692.84;1651833;86;20212;-57
2022/05/29 15:49:15;;;;;;;;;;;;;;;22.70;57.09;100695.41;1654076;85;20579;-58
2022/05/29 15:52:26;;;;;;;;;;;;;;;22.73;57.08;100697.70;1649120;86;20271;-57
2022/05/29 15:55:52;;;;;;;;;;;;;;;22.76;57.04;100702.78;1649268;86;20257;-58
2022/05/29 15:59:06;;;;;;;;;;;;;;;22.73;57.03;100697.70;1650902;86;20242;-57
2022/05/29 16:02:23;;;;;;;;;;;;;;;23.04;56.69;100695.84;1647433;85;20561;-60
2022/05/29 16:05:36;;;;;;;;;;;;;;;23.19;56.32;100691.39;1656760;86;20262;-58
2022/05/29 16:08:43;;;;;;;;;;;;;;;23.05;56.27;100693.33;1634752;87;20304;-58
2022/05/29 16:11:59;;;;;;;;;;;;;;;23.02;56.51;100690.50;1641064;87;20534;-58
2022/05/29 16:15:06;;;;;;;;;;;;;;;23.04;56.20;100697.23;1632512;85;20215;-54
2022/05/29 16:18:39;;;;;;;;;;;;;;;23.18;56.47;100696.66;1633409;87;20233;-54
2022/05/29 16:21:56;;;;;;;;;;;;;;;23.20;56.28;100700.59;1660974;86;20592;-55
2022/05/29 16:25:28;;;;;;;;;;;;;;;22.86;56.02;100699.67;1640691;87;20581;-55
2022/05/29 16:28:39;;;;;;;;;;;;;;;22.51;55.87;100700.81;1634986;86;20273;-54
2022/05/29 16:31:50;;;;;;;;;;;;;;;22.20;55.88;100689.51;1695663;82;20208;-53
2022/05/29 16:35:18;;;;;;;;;;;;;;;21.95;56.12;100701.47;1730393;82;20217;-54
2022/05/29 16:48:55;;;;;;;;;;;;;;;21.02;56.25;100720.42;1674058;85;20255;-54
2022/05/29 16:52:02;;;;;;;;;;;;;;;20.77;56.23;100725.52;1702255;82;20256;-55
2022/05/29 16:55:09;;;;;;;;;;;;;;;20.56;56.29;100715.44;1696645;84;20225;-55
2022/05/29 16:58:20;;;;;;;;;;;;;;;20.39;56.41;100718.53;1701855;84;20261;-55
2022/05/29 17:01:33;;;;;;;;;;;;;;;20.25;56.49;100722.52;1686618;84;20220;-59
2022/05/29 17:04:44;;;;;;;;;;;;;;;20.13;56.51;100724.33;1698226;84;20244;-59
2022/05/29 17:07:54;;;;;;;;;;;;;;;19.95;56.56;100726.53;1694166;84;20224;-58
2022/05/29 17:11:08;;;;;;;;;;;;;;;19.76;56.69;100723.92;1702663;84;20492;-59
2022/05/29 17:14:18;;;;;;;;;;;;;;;19.56;56.82;100714.92;1679048;84;20240;-59
2022/05/29 17:17:22;;;;;;;;;;;;;;;19.36;56.93;100720.61;1675815;84;20217;-59
2022/05/29 17:20:28;;;;;;;;;;;;;;;19.17;57.06;100725.77;1678442;85;20258;-59
2022/05/29 17:23:45;;;;;;;;;;;;;;;18.99;57.24;100727.03;1679080;85;20633;-59